createdAt,value
2022-08-27T00:00:29.355Z,1.40
2022-08-27T00:02:56.063Z,0.95
2022-08-27T00:05:23.254Z,0.98
2022-08-27T00:07:49.981Z,0.95
2022-08-27T00:10:22.437Z,1.48
2022-08-27T00:12:49.202Z,1.02
2022-08-27T00:15:17.783Z,0.82
2022-08-27T00:17:46.485Z,0.80
2022-08-27T00:20:16.460Z,1.20
2022-08-27T00:22:43.625Z,0.90
2022-08-27T00:25:11.935Z,1.60
2022-08-27T00:27:39.299Z,0.90
2022-08-27T00:30:10.853Z,1.10
2022-08-27T00:32:38.655Z,0.98
2022-08-27T00:35:05.718Z,0.77
2022-08-27T00:37:33.296Z,0.90
2022-08-27T00:40:00.264Z,0.93
2022-08-27T00:42:28.267Z,0.98
2022-08-27T00:44:59.305Z,1.00
2022-08-27T00:47:29.465Z,1.10
2022-08-27T00:50:01.362Z,0.73
2022-08-27T00:52:34.620Z,1.20
2022-08-27T00:55:18.492Z,1.00
2022-08-27T00:57:49.645Z,1.08
2022-08-27T01:00:19.653Z,1.15
2022-08-27T01:02:47.515Z,1.50
2022-08-27T01:05:22.980Z,1.38
2022-08-27T01:07:53.559Z,1.13
2022-08-27T01:10:22.596Z,1.40
2022-08-27T01:12:53.469Z,1.27
2022-08-27T01:15:22.664Z,0.90
2022-08-27T01:17:50.408Z,1.00
2022-08-27T01:20:24.754Z,0.80
2022-08-27T01:23:14.778Z,0.85
2022-08-27T01:25:45.840Z,0.82
2022-08-27T01:28:14.308Z,1.10
2022-08-27T01:30:41.340Z,1.30
2022-08-27T01:33:11.122Z,1.40
2022-08-27T01:35:40.161Z,1.10
2022-08-27T01:38:07.322Z,0.82
2022-08-27T01:40:38.635Z,1.50
2022-08-27T01:43:06.498Z,0.80
2022-08-27T01:45:36.892Z,0.57
2022-08-27T01:48:04.755Z,0.73
2022-08-27T01:50:35.954Z,0.73
2022-08-27T01:53:09.548Z,0.70
2022-08-27T01:55:37.207Z,0.88
2022-08-27T01:58:04.612Z,0.82
2022-08-27T02:00:36.597Z,0.98
2022-08-27T02:03:04.176Z,0.65
2022-08-27T02:05:30.830Z,0.93
2022-08-27T02:07:58.083Z,0.80
2022-08-27T02:10:31.710Z,0.73
2022-08-27T02:12:58.399Z,0.70
2022-08-27T02:15:25.937Z,0.90
2022-08-27T02:17:52.876Z,0.80
2022-08-27T02:20:20.767Z,0.70
2022-08-27T02:22:47.570Z,1.13
2022-08-27T02:25:16.487Z,1.25
2022-08-27T02:27:43.918Z,0.70
2022-08-27T02:30:13.314Z,0.82
2022-08-27T02:32:40.241Z,0.90
2022-08-27T02:35:09.087Z,0.85
2022-08-27T02:37:37.434Z,1.20
2022-08-27T02:40:06.461Z,1.00
2022-08-27T02:42:33.337Z,0.85
2022-08-27T02:45:00.037Z,0.70
2022-08-27T02:47:26.974Z,0.90
2022-08-27T02:49:53.628Z,0.73
2022-08-27T02:52:24.940Z,0.60
2022-08-27T02:54:51.999Z,0.63
2022-08-27T02:57:18.652Z,1.20
2022-08-27T02:59:45.273Z,0.90
2022-08-27T03:02:12.020Z,0.80
2022-08-27T03:04:38.805Z,0.70
2022-08-27T03:07:05.505Z,0.82
2022-08-27T03:09:33.117Z,0.80
2022-08-27T03:12:00.473Z,0.82
2022-08-27T03:14:27.310Z,0.98
2022-08-27T03:16:54.754Z,1.02
2022-08-27T03:19:24.093Z,1.13
2022-08-27T03:21:54.517Z,1.00
2022-08-27T03:24:21.873Z,0.90
2022-08-27T03:26:52.583Z,1.00
2022-08-27T03:29:20.794Z,1.65
2022-08-27T03:31:47.433Z,1.80
2022-08-27T03:34:14.097Z,2.05
2022-08-27T03:36:48.859Z,2.80
2022-08-27T03:39:15.455Z,2.78
2022-08-27T03:41:55.311Z,2.85
2022-08-27T03:44:24.128Z,2.55
2022-08-27T03:46:52.338Z,2.20
2022-08-27T03:49:21.259Z,2.38
2022-08-27T03:51:49.896Z,1.25
2022-08-27T03:54:16.788Z,1.30
2022-08-27T03:56:43.503Z,1.38
2022-08-27T03:59:10.332Z,1.00
2022-08-27T04:01:37.142Z,1.17
2022-08-27T04:04:03.961Z,0.98
2022-08-27T04:06:30.571Z,0.90
2022-08-27T04:08:57.225Z,0.80
2022-08-27T04:11:23.898Z,0.68
2022-08-27T04:13:50.987Z,0.70
2022-08-27T04:16:17.737Z,1.13
2022-08-27T04:18:44.370Z,0.80
2022-08-27T04:21:13.817Z,1.10
2022-08-27T04:23:42.454Z,1.30
2022-08-27T04:26:10.892Z,1.00
2022-08-27T04:28:38.997Z,0.73
2022-08-27T04:31:06.804Z,1.02
2022-08-27T04:33:40.910Z,1.00
2022-08-27T04:36:10.067Z,1.00
2022-08-27T04:38:37.647Z,0.93
2022-08-27T04:41:22.994Z,1.10
2022-08-27T04:43:56.213Z,0.80
2022-08-27T04:46:32.132Z,1.15
2022-08-27T04:49:01.455Z,1.20
2022-08-27T04:51:29.631Z,0.73
2022-08-27T04:53:57.550Z,0.80
2022-08-27T04:56:28.317Z,0.77
2022-08-27T04:58:55.408Z,0.68
2022-08-27T05:01:25.754Z,0.88
2022-08-27T05:03:53.533Z,1.08
2022-08-27T05:06:21.152Z,0.70
2022-08-27T05:08:50.031Z,0.90
2022-08-27T05:11:19.099Z,0.82
2022-08-27T05:13:46.780Z,1.00
2022-08-27T05:16:23.350Z,1.17
2022-08-27T05:18:51.675Z,0.88
2022-08-27T05:21:28.991Z,0.80
2022-08-27T05:23:58.705Z,0.77
2022-08-27T05:26:26.975Z,0.77
2022-08-27T05:28:54.141Z,1.40
2022-08-27T05:31:22.345Z,0.98
2022-08-27T05:33:49.630Z,0.82
2022-08-27T05:36:22.643Z,0.82
2022-08-27T05:38:50.312Z,0.70
2022-08-27T05:41:20.344Z,0.85
2022-08-27T05:43:50.492Z,0.60
2022-08-27T05:46:19.049Z,0.65
2022-08-27T05:48:46.639Z,0.90
2022-08-27T05:51:16.149Z,1.05
2022-08-27T05:53:47.207Z,1.00
2022-08-27T05:56:19.552Z,0.95
2022-08-27T05:59:06.215Z,0.80
2022-08-27T06:01:39.659Z,0.70
2022-08-27T06:04:06.672Z,1.08
2022-08-27T06:06:39.050Z,1.15
2022-08-27T06:09:07.028Z,1.05
2022-08-27T06:11:34.355Z,0.98
2022-08-27T06:14:01.122Z,0.88
2022-08-27T06:16:27.974Z,1.00
2022-08-27T06:18:57.200Z,1.45
2022-08-27T06:21:24.979Z,1.10
2022-08-27T06:23:54.368Z,0.90
2022-08-27T06:26:23.914Z,1.15
2022-08-27T06:28:51.036Z,1.02
2022-08-27T06:31:22.257Z,0.60
2022-08-27T06:33:51.790Z,0.75
2022-08-27T06:36:22.928Z,1.05
2022-08-27T06:38:53.258Z,0.68
2022-08-27T06:41:23.833Z,0.80
2022-08-27T06:43:51.813Z,0.80
2022-08-27T06:46:20.517Z,1.23
2022-08-27T06:48:49.375Z,0.90
2022-08-27T06:51:19.109Z,0.90
2022-08-27T06:53:47.294Z,0.82
2022-08-27T06:56:16.154Z,1.17
2022-08-27T06:58:43.770Z,0.73
2022-08-27T07:01:20.322Z,1.10
2022-08-27T07:03:47.147Z,1.20
2022-08-27T07:06:16.998Z,1.13
2022-08-27T07:08:45.086Z,0.52
2022-08-27T07:11:20.872Z,0.77
2022-08-27T07:13:48.723Z,1.00
2022-08-27T07:16:19.089Z,1.00
2022-08-27T07:18:46.243Z,1.05
2022-08-27T07:21:13.028Z,1.75
2022-08-27T07:23:40.285Z,0.73
2022-08-27T07:26:09.160Z,1.08
2022-08-27T07:28:37.966Z,1.15
2022-08-27T07:31:06.212Z,0.70
2022-08-27T07:33:32.887Z,0.88
2022-08-27T07:35:59.559Z,0.80
2022-08-27T07:38:26.395Z,0.68
2022-08-27T07:40:53.603Z,0.70
2022-08-27T07:43:38.961Z,0.68
2022-08-27T07:46:05.891Z,1.02
2022-08-27T07:48:34.472Z,0.73
2022-08-27T07:51:05.247Z,0.80
2022-08-27T07:53:33.102Z,1.10
2022-08-27T07:56:04.868Z,0.77
2022-08-27T07:58:32.412Z,1.23
2022-08-27T08:00:59.434Z,0.70
2022-08-27T08:03:26.980Z,0.95
2022-08-27T08:05:54.204Z,0.68
2022-08-27T08:08:22.027Z,1.00
2022-08-27T08:10:48.789Z,0.52
2022-08-27T08:13:19.658Z,0.80
2022-08-27T08:15:47.355Z,1.48
2022-08-27T08:18:14.148Z,1.08
2022-08-27T08:20:57.521Z,1.10
2022-08-27T08:23:25.157Z,0.88
2022-08-27T08:25:51.764Z,0.98
2022-08-27T08:28:18.713Z,2.00
2022-08-27T08:30:47.621Z,1.27
2022-08-27T08:33:14.513Z,0.73
2022-08-27T08:35:41.518Z,0.95
2022-08-27T08:38:09.816Z,1.00
2022-08-27T08:40:40.887Z,1.13
2022-08-27T08:43:20.281Z,0.55
2022-08-27T08:45:48.536Z,0.93
2022-08-27T08:48:20.882Z,0.82
2022-08-27T08:51:01.733Z,1.10
2022-08-27T08:53:59.150Z,0.60
2022-08-27T08:59:38.156Z,1.33
2022-08-27T09:02:13.542Z,0.95
2022-08-27T09:04:42.057Z,1.25
2022-08-27T09:07:35.111Z,0.52
2022-08-27T09:10:13.778Z,0.70
2022-08-27T09:12:41.456Z,1.27
2022-08-27T09:15:28.878Z,0.50
2022-08-27T09:18:14.755Z,0.80
2022-08-27T09:20:46.251Z,0.75
2022-08-27T09:23:26.791Z,0.82
2022-08-27T09:25:53.639Z,0.75
2022-08-27T09:28:43.709Z,0.60
2022-08-27T09:31:15.507Z,0.63
2022-08-27T09:33:56.142Z,0.90
2022-08-27T09:36:24.152Z,0.38
2022-08-27T09:38:58.227Z,0.80
2022-08-27T09:41:29.629Z,0.98
2022-08-27T09:43:58.797Z,0.52
2022-08-27T09:46:27.152Z,0.80
2022-08-27T09:48:54.887Z,0.70
2022-08-27T09:51:25.613Z,0.45
2022-08-27T09:54:02.018Z,0.60
2022-08-27T09:56:39.178Z,0.50
2022-08-27T09:59:22.894Z,0.40
2022-08-27T10:01:53.325Z,0.52
2022-08-27T10:04:28.591Z,0.85
2022-08-27T10:09:21.893Z,0.43
2022-08-27T10:11:59.278Z,0.68
2022-08-27T10:14:32.967Z,0.70
2022-08-27T10:17:15.623Z,0.65
2022-08-27T10:20:12.910Z,0.60
2022-08-27T10:22:59.330Z,0.57
2022-08-27T10:25:39.502Z,0.57
2022-08-27T10:28:23.565Z,0.70
2022-08-27T10:31:18.691Z,0.52
2022-08-27T10:34:21.068Z,0.63
2022-08-27T10:37:00.445Z,0.65
2022-08-27T10:40:09.343Z,0.40
2022-08-27T10:42:42.539Z,0.55
2022-08-27T10:45:41.604Z,0.95
2022-08-27T10:48:24.310Z,0.80
2022-08-27T10:51:24.373Z,0.52
2022-08-27T10:53:54.135Z,0.70
2022-08-27T10:56:31.347Z,0.63
2022-08-27T10:59:07.063Z,0.70
2022-08-27T11:01:48.063Z,1.15
2022-08-27T11:04:21.354Z,0.55
2022-08-27T11:06:57.870Z,0.77
2022-08-27T11:09:46.658Z,0.65
2022-08-27T11:12:19.297Z,0.60
2022-08-27T11:15:25.485Z,0.65
2022-08-27T11:18:11.357Z,0.65
2022-08-27T11:20:43.682Z,0.77
2022-08-27T11:23:16.257Z,0.60
2022-08-27T11:25:52.917Z,0.70
2022-08-27T11:28:30.020Z,1.00
2022-08-27T11:31:23.227Z,0.93
2022-08-27T11:33:59.581Z,0.75
2022-08-27T11:37:44.993Z,0.60
2022-08-27T11:40:42.306Z,0.60
2022-08-27T11:43:17.552Z,0.52
2022-08-27T11:46:00.154Z,0.90
2022-08-27T11:48:30.856Z,0.90
2022-08-27T11:51:02.681Z,0.50
2022-08-27T11:53:42.814Z,0.70
2022-08-27T11:56:33.661Z,0.70
2022-08-27T11:59:28.483Z,0.70
2022-08-27T12:02:09.745Z,0.63
2022-08-27T12:04:40.786Z,0.50
2022-08-27T12:07:13.756Z,0.70
2022-08-27T12:10:06.706Z,0.60
2022-08-27T12:12:49.007Z,0.68
2022-08-27T12:15:34.180Z,0.85
2022-08-27T12:18:15.849Z,0.85
2022-08-27T12:20:47.832Z,0.80
2022-08-27T12:23:43.889Z,0.70
2022-08-27T12:26:25.479Z,0.50
2022-08-27T12:29:16.136Z,0.80
2022-08-27T12:31:46.480Z,0.60
2022-08-27T12:34:23.618Z,0.60
2022-08-27T12:36:53.403Z,0.50
2022-08-27T12:39:28.377Z,0.70
2022-08-27T12:41:55.703Z,0.50
2022-08-27T12:44:32.778Z,0.60
2022-08-27T12:47:06.022Z,0.68
2022-08-27T12:49:55.531Z,0.65
2022-08-27T12:52:22.633Z,0.68
2022-08-27T12:55:10.957Z,0.77
2022-08-27T12:57:49.179Z,0.60
2022-08-27T13:00:19.665Z,0.80
2022-08-27T13:03:03.982Z,0.90
2022-08-27T13:05:44.162Z,0.55
2022-08-27T13:08:37.629Z,0.90
2022-08-27T13:11:19.394Z,0.60
2022-08-27T13:13:46.215Z,0.70
2022-08-27T13:16:13.091Z,0.70
2022-08-27T13:18:40.519Z,0.63
2022-08-27T13:21:18.209Z,0.85
2022-08-27T13:23:52.032Z,1.00
2022-08-27T13:26:22.306Z,0.73
2022-08-27T13:28:49.637Z,0.88
2022-08-27T13:31:16.970Z,0.80
2022-08-27T13:33:44.599Z,0.63
2022-08-27T13:36:12.184Z,0.50
2022-08-27T13:38:49.955Z,0.82
2022-08-27T13:41:23.003Z,0.70
2022-08-27T13:43:49.933Z,0.70
2022-08-27T13:46:20.752Z,0.50
2022-08-27T13:48:50.345Z,0.98
2022-08-27T13:51:25.566Z,0.82
2022-08-27T13:54:10.879Z,0.95
2022-08-27T13:56:40.876Z,0.65
2022-08-27T13:59:19.297Z,0.50
2022-08-27T14:02:01.369Z,0.70
2022-08-27T14:04:43.785Z,0.80
2022-08-27T14:07:20.150Z,0.60
2022-08-27T14:09:54.493Z,0.93
2022-08-27T14:12:28.818Z,0.65
2022-08-27T14:15:15.439Z,0.98
2022-08-27T14:17:45.866Z,0.70
2022-08-27T14:20:15.655Z,0.68
2022-08-27T14:22:43.676Z,0.80
2022-08-27T14:25:11.774Z,0.60
2022-08-27T14:27:40.832Z,0.80
2022-08-27T14:30:28.941Z,0.70
2022-08-27T14:33:00.982Z,0.80
2022-08-27T14:35:34.748Z,0.90
2022-08-27T14:38:09.986Z,0.73
2022-08-27T14:40:36.791Z,0.68
2022-08-27T14:43:03.920Z,0.77
2022-08-27T14:45:30.921Z,0.80
2022-08-27T14:48:02.153Z,0.73
2022-08-27T14:50:29.300Z,0.45
2022-08-27T14:52:55.906Z,0.98
2022-08-27T14:55:23.317Z,0.63
2022-08-27T14:57:50.750Z,0.60
2022-08-27T15:00:17.548Z,0.90
2022-08-27T15:02:48.042Z,0.80
2022-08-27T15:05:16.969Z,0.50
2022-08-27T15:07:47.208Z,0.50
2022-08-27T15:10:14.731Z,0.73
2022-08-27T15:12:41.844Z,0.55
2022-08-27T15:15:10.072Z,0.63
2022-08-27T15:17:37.046Z,0.70
2022-08-27T15:20:13.637Z,0.60
2022-08-27T15:22:48.316Z,0.93
2022-08-27T15:25:15.471Z,0.70
2022-08-27T15:27:42.205Z,0.90
2022-08-27T15:30:12.789Z,0.77
2022-08-27T15:32:48.369Z,0.73
2022-08-27T15:35:18.584Z,0.52
2022-08-27T15:37:45.608Z,0.70
2022-08-27T15:40:14.791Z,0.47
2022-08-27T15:42:41.998Z,0.80
2022-08-27T15:45:10.061Z,0.85
2022-08-27T15:47:36.786Z,0.40
2022-08-27T15:50:04.970Z,0.80
2022-08-27T15:52:40.393Z,0.73
2022-08-27T15:55:24.761Z,0.55
2022-08-27T15:57:52.139Z,0.60
2022-08-27T16:00:18.986Z,0.40
2022-08-27T16:02:46.171Z,0.65
2022-08-27T16:05:15.026Z,0.85
2022-08-27T16:07:42.113Z,0.80
2022-08-27T16:10:10.023Z,0.55
2022-08-27T16:12:37.608Z,0.77
2022-08-27T16:15:05.747Z,0.73
2022-08-27T16:17:33.087Z,0.90
2022-08-27T16:20:00.196Z,0.70
2022-08-27T16:22:26.897Z,0.47
2022-08-27T16:24:53.527Z,0.75
2022-08-27T16:27:20.399Z,0.68
2022-08-27T16:29:47.105Z,0.75
2022-08-27T16:32:17.236Z,0.60
2022-08-27T16:34:47.258Z,0.80
2022-08-27T16:37:13.987Z,0.75
2022-08-27T16:39:41.552Z,0.68
2022-08-27T16:42:10.071Z,1.30
2022-08-27T16:44:37.529Z,0.80
2022-08-27T16:47:05.814Z,0.60
2022-08-27T16:49:51.479Z,0.65
2022-08-27T16:52:20.773Z,0.90
2022-08-27T16:54:47.693Z,0.90
2022-08-27T16:57:14.670Z,0.45
2022-08-27T16:59:41.494Z,1.10
2022-08-27T17:02:21.481Z,0.77
2022-08-27T17:05:07.311Z,0.85
2022-08-27T17:07:40.343Z,1.00
2022-08-27T17:10:13.110Z,0.95
2022-08-27T17:12:40.801Z,0.68
2022-08-27T17:15:09.560Z,0.85
2022-08-27T17:17:38.961Z,0.95
2022-08-27T17:20:06.750Z,0.90
2022-08-27T17:22:34.738Z,0.65
2022-08-27T17:25:01.488Z,0.75
2022-08-27T17:27:28.210Z,0.88
2022-08-27T17:29:54.977Z,0.60
2022-08-27T17:32:21.838Z,0.80
2022-08-27T17:34:48.576Z,0.68
2022-08-27T17:37:15.269Z,0.75
2022-08-27T17:39:45.317Z,0.68
2022-08-27T17:42:11.986Z,0.60
2022-08-27T17:44:38.927Z,0.98
2022-08-27T17:47:07.280Z,0.77
2022-08-27T17:49:34.407Z,0.80
2022-08-27T17:52:09.545Z,0.63
2022-08-27T17:54:40.704Z,0.75
2022-08-27T17:57:15.966Z,0.55
2022-08-27T17:59:42.980Z,0.80
2022-08-27T18:02:13.956Z,0.90
2022-08-27T18:04:40.623Z,1.05
2022-08-27T18:07:07.622Z,1.08
2022-08-27T18:09:34.228Z,0.93
2022-08-27T18:12:01.659Z,0.82
2022-08-27T18:14:28.360Z,0.57
2022-08-27T18:16:55.085Z,1.13
2022-08-27T18:19:22.193Z,0.93
2022-08-27T18:21:49.799Z,0.85
2022-08-27T18:24:16.816Z,0.95
2022-08-27T18:26:44.706Z,0.50
2022-08-27T18:29:13.127Z,1.00
2022-08-27T18:31:40.052Z,0.75
2022-08-27T18:34:06.934Z,0.80
2022-08-27T18:36:33.704Z,0.90
2022-08-27T18:39:00.473Z,0.50
2022-08-27T18:41:30.328Z,0.82
2022-08-27T18:43:58.371Z,0.80
2022-08-27T18:46:25.144Z,0.52
2022-08-27T18:48:51.835Z,0.77
2022-08-27T18:51:19.759Z,0.93
2022-08-27T18:53:48.150Z,0.50
2022-08-27T18:56:18.621Z,0.50
2022-08-27T18:58:46.191Z,0.90
2022-08-27T19:01:16.831Z,0.73
2022-08-27T19:03:46.746Z,0.75
2022-08-27T19:06:16.201Z,0.85
2022-08-27T19:08:43.461Z,0.77
2022-08-27T19:11:10.728Z,0.70
2022-08-27T19:13:37.767Z,0.70
2022-08-27T19:16:13.735Z,1.00
2022-08-27T19:18:41.628Z,1.38
2022-08-27T19:21:08.533Z,0.63
2022-08-27T19:23:35.870Z,0.75
2022-08-27T19:26:03.115Z,0.95
2022-08-27T19:28:45.040Z,1.27
2022-08-27T19:31:13.111Z,0.60
2022-08-27T19:33:40.331Z,0.95
2022-08-27T19:36:11.466Z,0.70
2022-08-27T19:38:42.780Z,0.80
2022-08-27T19:41:09.413Z,3.28
2022-08-27T19:43:36.527Z,1.20
2022-08-27T19:46:04.732Z,0.70
2022-08-27T19:48:34.115Z,0.60
2022-08-27T19:51:01.084Z,0.77
2022-08-27T19:53:27.847Z,0.60
2022-08-27T19:55:54.534Z,0.63
2022-08-27T19:58:21.485Z,0.75
2022-08-27T20:00:48.618Z,0.90
2022-08-27T20:03:15.749Z,0.80
2022-08-27T20:05:43.748Z,0.40
2022-08-27T20:08:10.614Z,0.90
2022-08-27T20:10:40.374Z,0.77
2022-08-27T20:13:07.930Z,0.60
2022-08-27T20:15:36.050Z,1.10
2022-08-27T20:18:05.767Z,1.08
2022-08-27T20:20:33.507Z,0.85
2022-08-27T20:23:03.527Z,0.73
2022-08-27T20:25:30.800Z,0.70
2022-08-27T20:27:57.443Z,0.52
2022-08-27T20:30:26.918Z,0.60
2022-08-27T20:32:53.965Z,0.70
2022-08-27T20:35:21.812Z,0.43
2022-08-27T20:37:48.664Z,0.40
2022-08-27T20:40:27.168Z,0.50
2022-08-27T20:42:54.095Z,0.50
2022-08-27T20:45:20.853Z,0.60
2022-08-27T20:47:49.583Z,0.70
2022-08-27T20:50:17.706Z,0.75
2022-08-27T20:52:45.383Z,0.50
2022-08-27T20:55:14.148Z,0.80
2022-08-27T20:58:11.770Z,0.65
2022-08-27T21:00:41.621Z,0.50
2022-08-27T21:03:10.086Z,0.60
2022-08-27T21:05:38.044Z,0.75
2022-08-27T21:08:06.253Z,0.60
2022-08-27T21:10:33.994Z,0.63
2022-08-27T21:13:04.537Z,0.80
2022-08-27T21:15:31.994Z,0.63
2022-08-27T21:17:58.579Z,0.52
2022-08-27T21:20:25.232Z,0.70
2022-08-27T21:22:51.922Z,0.90
2022-08-27T21:25:18.742Z,0.93
2022-08-27T21:27:45.315Z,0.30
2022-08-27T21:30:14.415Z,0.75
2022-08-27T21:32:41.599Z,0.85
2022-08-27T21:35:08.701Z,0.70
2022-08-27T21:37:35.751Z,0.52
2022-08-27T21:40:06.021Z,0.55
2022-08-27T21:42:32.771Z,0.52
2022-08-27T21:44:59.462Z,0.45
2022-08-27T21:47:26.168Z,0.77
2022-08-27T21:49:52.741Z,0.50
2022-08-27T21:52:19.456Z,0.50
2022-08-27T21:54:46.032Z,0.55
2022-08-27T21:57:15.444Z,0.93
2022-08-27T21:59:47.848Z,0.63
2022-08-27T22:02:38.636Z,0.60
2022-08-27T22:05:03.267Z,0.60
2022-08-27T22:07:29.900Z,0.63
2022-08-27T22:09:56.572Z,1.30
2022-08-27T22:12:24.361Z,0.52
2022-08-27T22:14:50.981Z,1.02
2022-08-27T22:17:17.609Z,0.80
2022-08-27T22:19:44.255Z,0.70
2022-08-27T22:22:10.886Z,0.95
2022-08-27T22:24:37.543Z,0.95
2022-08-27T22:27:04.322Z,1.15
2022-08-27T22:29:31.043Z,1.20
2022-08-27T22:31:58.411Z,0.68
2022-08-27T22:34:25.111Z,1.10
2022-08-27T22:36:51.684Z,0.95
2022-08-27T22:39:18.632Z,0.82
2022-08-27T22:41:48.714Z,0.98
2022-08-27T22:44:16.032Z,1.20
2022-08-27T22:46:42.979Z,0.82
2022-08-27T22:49:09.880Z,1.13
2022-08-27T22:51:36.509Z,1.35
2022-08-27T22:54:03.261Z,0.80
2022-08-27T22:56:29.859Z,1.45
2022-08-27T22:58:56.693Z,1.33
2022-08-27T23:01:24.623Z,1.30
2022-08-27T23:03:53.041Z,1.13
2022-08-27T23:06:20.125Z,1.60
2022-08-27T23:08:46.961Z,1.40
2022-08-27T23:11:14.094Z,1.23
2022-08-27T23:13:41.052Z,1.00
2022-08-27T23:16:09.170Z,1.17
2022-08-27T23:18:36.948Z,0.95
2022-08-27T23:21:05.891Z,1.10
2022-08-27T23:23:33.950Z,1.05
2022-08-27T23:26:19.119Z,1.50
2022-08-27T23:28:46.223Z,1.85
2022-08-27T23:31:13.838Z,1.40
2022-08-27T23:33:40.602Z,1.42
2022-08-27T23:36:07.774Z,1.55
2022-08-27T23:38:34.589Z,1.48
2022-08-27T23:41:01.696Z,1.92
2022-08-27T23:43:28.608Z,1.38
2022-08-27T23:45:55.208Z,2.10
2022-08-27T23:48:21.964Z,1.90
2022-08-27T23:50:48.713Z,1.73
2022-08-27T23:53:15.444Z,2.08
2022-08-27T23:55:42.040Z,2.00
2022-08-27T23:58:09.763Z,1.95
